Time;durP1;ratioP1;P1;durP2;ratioP2;P2;SDS_P1;SDS_P2;PMS_P1;PMS_P2;Temp;Humidity;BMP_temperature;BMP_pressure;BME280_temperature;BME280_humidity;BME280_pressure;Samples;Min_cycle;Max_cycle;Signal;HPM_P1;HPM_P2
2022/03/15 00:01:09;;;;;;;35.80;22.70;;;;;;;0.18;59.90;101170.84;213426;1273;142432;-70
2022/03/15 00:06:15;;;;;;;43.70;21.80;;;;;;;0.17;60.02;101174.27;214296;1273;141965;-70
2022/03/15 00:11:19;;;;;;;52.00;25.00;;;;;;;0.21;59.63;101172.67;214993;1273;140966;-71
2022/03/15 00:16:23;;;;;;;48.30;22.50;;;;;;;0.25;59.78;101175.81;216163;1273;140024;-72
2022/03/15 00:21:28;;;;;;;45.80;25.40;;;;;;;0.31;59.73;101177.74;215960;1273;140370;-68
2022/03/15 00:26:34;;;;;;;42.70;24.10;;;;;;;0.38;59.58;101173.65;215570;1273;140663;-72
2022/03/15 00:31:39;;;;;;;52.20;23.70;;;;;;;0.43;59.27;101177.11;215734;1273;139747;-79
2022/03/15 00:36:45;;;;;;;38.50;21.90;;;;;;;0.42;59.37;101181.38;215349;1273;140300;-75
2022/03/15 00:41:50;;;;;;;47.10;24.90;;;;;;;0.33;59.69;101180.36;215396;1273;140020;-75
2022/03/15 00:46:53;;;;;;;48.40;25.30;;;;;;;0.21;59.86;101173.23;214944;1273;142568;-74
2022/03/15 00:51:57;;;;;;;46.80;24.30;;;;;;;0.15;59.84;101176.35;214791;1274;139806;-73
2022/03/15 00:57:01;;;;;;;42.50;23.50;;;;;;;0.08;59.88;101172.77;214941;1273;140561;-72
2022/03/15 01:02:05;;;;;;;44.00;23.90;;;;;;;0.05;59.94;101164.33;214254;1274;140686;-71
2022/03/15 01:07:12;;;;;;;50.30;23.10;;;;;;;-0.02;60.29;101166.64;214296;1274;141509;-69
2022/03/15 01:12:16;;;;;;;45.90;21.50;;;;;;;-0.09;60.22;101162.67;214561;1273;140569;-69
2022/03/15 01:17:20;;;;;;;43.80;24.70;;;;;;;-0.10;60.83;101157.92;214280;1274;140321;-71
2022/03/15 01:22:24;;;;;;;33.40;21.90;;;;;;;-0.12;61.16;101159.48;214311;1274;140693;-69
2022/03/15 01:27:29;;;;;;;26.40;15.60;;;;;;;-0.26;61.03;101160.83;214810;1274;139842;-65
2022/03/15 01:32:34;;;;;;;40.00;19.40;;;;;;;-0.39;61.13;101168.73;214018;1274;140807;-69
2022/03/15 01:37:38;;;;;;;36.70;21.40;;;;;;;-0.43;61.44;101168.06;213546;1274;140359;-73
2022/03/15 01:42:42;;;;;;;41.80;24.90;;;;;;;-0.53;61.63;101166.25;213937;1274;140626;-70
2022/03/15 01:47:47;;;;;;;48.50;25.10;;;;;;;-0.53;62.10;101167.30;214370;1274;140169;-71
2022/03/15 01:52:51;;;;;;;42.10;23.70;;;;;;;-0.54;61.79;101171.95;214587;1274;140803;-74
2022/03/15 01:57:55;;;;;;;40.20;23.20;;;;;;;-0.56;62.15;101174.56;214666;1274;140309;-71
2022/03/15 02:03:02;;;;;;;37.20;21.50;;;;;;;-0.57;62.42;101180.18;214601;1274;140805;-70
2022/03/15 02:08:08;;;;;;;31.30;18.20;;;;;;;-0.57;62.44;101184.27;215026;1274;140842;-70
2022/03/15 02:13:13;;;;;;;33.90;21.00;;;;;;;-0.56;62.69;101183.08;214070;1274;140269;-73
2022/03/15 02:18:21;;;;;;;35.70;20.10;;;;;;;-0.49;63.18;101183.54;213198;1274;139889;-71
2022/03/15 02:23:27;;;;;;;37.00;19.50;;;;;;;-0.39;63.38;101177.64;216123;1274;140706;-73
2022/03/15 02:28:31;;;;;;;32.70;21.30;;;;;;;-0.24;63.84;101185.65;214173;1274;682194;-74
2022/03/15 02:33:35;;;;;;;41.80;21.90;;;;;;;-0.11;64.35;101181.26;215622;1274;141609;-70
2022/03/15 02:38:39;;;;;;;38.20;20.40;;;;;;;0.03;64.64;101180.86;215268;1274;140067;-68
2022/03/15 02:43:44;;;;;;;35.00;22.00;;;;;;;0.16;64.35;101174.84;215337;1274;140914;-68
2022/03/15 02:48:49;;;;;;;41.30;22.90;;;;;;;0.29;64.78;101177.23;215085;1274;140211;-68
2022/03/15 02:53:56;;;;;;;37.80;20.50;;;;;;;0.40;64.54;101186.39;214728;1274;142004;-68
2022/03/15 02:59:01;;;;;;;53.10;26.90;;;;;;;0.51;64.69;101181.92;213882;1274;139872;-67
2022/03/15 03:04:05;;;;;;;55.90;25.30;;;;;;;0.68;64.90;101182.21;214146;1274;140668;-73
2022/03/15 03:09:11;;;;;;;52.10;23.80;;;;;;;0.87;64.41;101174.53;214062;1274;140571;-69
2022/03/15 03:14:16;;;;;;;41.50;24.50;;;;;;;1.04;64.23;101168.31;214779;1274;139692;-69
2022/03/15 03:19:20;;;;;;;47.30;25.10;;;;;;;1.16;64.08;101169.16;214417;1274;141080;-69
2022/03/15 03:24:25;;;;;;;47.00;26.30;;;;;;;1.26;63.95;101177.52;214316;1274;139913;-70
2022/03/15 03:29:31;;;;;;;48.50;24.40;;;;;;;1.27;63.40;101179.69;213194;1274;140307;-68
2022/03/15 03:34:36;;;;;;;42.60;23.30;;;;;;;1.23;63.61;101182.30;213790;1274;140231;-68
2022/03/15 03:39:40;;;;;;;43.60;21.10;;;;;;;1.22;63.51;101181.91;213670;1272;162692;-70
2022/03/15 03:44:44;;;;;;;33.50;20.50;;;;;;;1.19;63.42;101181.46;213810;1274;142114;-72
2022/03/15 03:49:49;;;;;;;38.90;23.40;;;;;;;1.18;63.39;101184.20;213479;1274;141607;-69
2022/03/15 03:54:54;;;;;;;34.20;21.70;;;;;;;1.18;63.68;101180.36;214601;1274;139725;-73
2022/03/15 03:59:59;;;;;;;37.60;21.30;;;;;;;1.18;63.82;101175.77;214203;1274;140755;-75
2022/03/15 04:05:03;;;;;;;38.90;21.90;;;;;;;1.16;63.56;101170.86;213989;1274;140081;-71
2022/03/15 04:10:09;;;;;;;35.90;22.30;;;;;;;1.12;63.23;101169.33;214464;1274;139535;-68
2022/03/15 04:15:13;;;;;;;30.40;21.50;;;;;;;0.99;63.79;101172.02;214981;1274;140636;-72
2022/03/15 04:20:17;;;;;;;35.10;20.80;;;;;;;0.84;63.75;101170.11;215598;1273;140640;-72
2022/03/15 04:25:20;;;;;;;39.50;22.80;;;;;;;0.73;64.03;101171.42;216211;1274;140090;-72
2022/03/15 04:30:24;;;;;;;48.10;21.30;;;;;;;0.67;64.14;101175.13;213883;1274;139848;-66
2022/03/15 04:35:29;;;;;;;26.20;18.30;;;;;;;0.69;64.44;101173.20;215001;1274;140403;-66
2022/03/15 04:40:34;;;;;;;32.60;18.90;;;;;;;0.76;65.03;101173.96;215734;1274;139876;-75
2022/03/15 04:45:38;;;;;;;36.30;21.20;;;;;;;0.89;65.08;101179.11;216143;1274;140367;-76
2022/03/15 04:50:43;;;;;;;37.20;22.40;;;;;;;1.15;64.92;101183.39;215024;1275;141383;-74
2022/03/15 04:55:48;;;;;;;32.80;22.10;;;;;;;1.39;65.48;101181.55;215900;1274;140923;-74
2022/03/15 05:00:51;;;;;;;42.00;25.80;;;;;;;1.56;65.65;101176.27;214572;1274;140030;-73
2022/03/15 05:05:56;;;;;;;40.30;24.10;;;;;;;1.65;65.45;101171.07;215007;1274;139996;-69
2022/03/15 05:11:09;;;;;;;43.80;24.70;;;;;;;1.68;65.59;101170.03;215098;1274;140816;-74
2022/03/15 05:16:18;;;;;;;35.70;20.60;;;;;;;1.67;64.88;101171.06;213625;1274;140223;-68
2022/03/15 05:21:27;;;;;;;44.30;23.70;;;;;;;1.56;65.07;101170.98;214222;1274;140895;-73
2022/03/15 05:26:32;;;;;;;28.50;16.90;;;;;;;1.51;65.04;101170.96;214121;1274;140162;-70
2022/03/15 05:31:35;;;;;;;34.80;19.40;;;;;;;1.49;65.71;101167.69;213479;1274;143975;-79
2022/03/15 05:36:40;;;;;;;31.90;19.40;;;;;;;1.53;66.04;101165.14;213473;1274;142545;-72
2022/03/15 05:41:45;;;;;;;31.70;19.80;;;;;;;1.65;66.72;101171.04;214524;1274;140094;-74
2022/03/15 05:46:49;;;;;;;34.90;19.80;;;;;;;1.86;66.96;101178.96;214080;1274;141226;-64
2022/03/15 05:51:52;;;;;;;33.30;20.30;;;;;;;2.09;67.37;101173.81;213250;1274;143243;-74
2022/03/15 05:56:57;;;;;;;17.20;11.00;;;;;;;2.31;67.17;101181.55;213509;1274;140971;-70
2022/03/15 06:02:01;;;;;;;32.40;19.50;;;;;;;2.51;67.53;101180.77;214069;1274;151606;-76
2022/03/15 06:07:06;;;;;;;37.70;21.70;;;;;;;2.69;67.36;101181.34;213373;1274;141782;-72
2022/03/15 06:12:10;;;;;;;32.10;21.00;;;;;;;2.85;67.21;101184.82;213458;1274;141254;-74
2022/03/15 06:17:14;;;;;;;36.00;18.80;;;;;;;3.00;67.21;101185.84;214910;1273;141411;-68
2022/03/15 06:22:19;;;;;;;26.50;17.30;;;;;;;3.18;67.36;101181.48;215029;1273;141453;-72
2022/03/15 06:27:23;;;;;;;33.00;17.90;;;;;;;3.38;67.39;101182.63;215441;1274;140687;-68
2022/03/15 06:32:28;;;;;;;27.00;15.70;;;;;;;3.57;67.16;101185.77;214716;1272;142437;-68
2022/03/15 06:37:36;;;;;;;29.90;15.40;;;;;;;3.78;66.98;101183.88;215618;1271;139971;-76
2022/03/15 06:42:41;;;;;;;34.40;19.90;;;;;;;4.02;67.03;101190.82;216114;1271;140379;-79
2022/03/15 06:47:46;;;;;;;33.90;20.20;;;;;;;4.39;66.47;101192.09;216083;1273;140152;-75
2022/03/15 06:52:50;;;;;;;34.40;20.30;;;;;;;4.77;66.21;101197.52;215947;1273;141119;-76
2022/03/15 06:57:53;;;;;;;24.70;18.20;;;;;;;5.12;65.96;101197.98;216028;1273;140645;-72
2022/03/15 07:02:57;;;;;;;23.50;16.40;;;;;;;5.56;65.79;101204.02;215069;1273;141049;-68
2022/03/15 07:08:03;;;;;;;31.50;20.00;;;;;;;6.05;65.44;101202.13;213694;1274;141198;-75
2022/03/15 07:13:07;;;;;;;20.70;15.20;;;;;;;6.44;65.18;101203.03;214342;1273;141122;-74
2022/03/15 07:18:11;;;;;;;24.60;17.50;;;;;;;6.65;64.94;101206.98;214917;1273;140620;-76
2022/03/15 07:23:14;;;;;;;20.90;14.90;;;;;;;6.86;64.85;101207.86;213260;1273;150898;-75
2022/03/15 07:28:19;;;;;;;36.50;20.40;;;;;;;7.03;64.87;101209.38;214684;1274;140069;-76
2022/03/15 07:33:24;;;;;;;22.20;14.70;;;;;;;7.11;64.82;101202.97;214626;1272;139926;-76
2022/03/15 07:38:28;;;;;;;25.70;17.10;;;;;;;7.34;64.48;101197.49;213254;1273;140459;-75
2022/03/15 07:43:32;;;;;;;24.40;14.90;;;;;;;7.61;64.81;101197.50;213807;1273;143476;-75
2022/03/15 07:48:35;;;;;;;22.80;14.40;;;;;;;7.89;65.00;101199.90;214740;1273;140833;-76
2022/03/15 07:53:39;;;;;;;52.00;17.80;;;;;;;7.98;64.02;101194.21;213473;1273;139825;-75
2022/03/15 07:58:43;;;;;;;15.60;10.80;;;;;;;8.10;64.05;101186.89;213860;1274;140541;-82
2022/03/15 08:03:48;;;;;;;23.80;15.30;;;;;;;8.17;64.11;101186.54;213689;1273;140454;-77
2022/03/15 08:08:57;;;;;;;19.60;12.80;;;;;;;8.24;63.81;101186.11;214654;1273;140118;-79
2022/03/15 08:14:02;;;;;;;19.90;13.60;;;;;;;8.30;63.72;101189.96;214431;1273;141819;-71
2022/03/15 08:19:06;;;;;;;27.50;15.60;;;;;;;8.31;63.79;101186.61;214428;1273;140047;-77
2022/03/15 08:24:11;;;;;;;22.00;13.40;;;;;;;8.31;63.93;101199.36;214080;1273;140196;-67
2022/03/15 08:29:16;;;;;;;18.50;11.30;;;;;;;8.21;63.87;101195.34;214092;1273;141803;-76
2022/03/15 08:34:22;;;;;;;19.10;13.40;;;;;;;8.13;64.27;101193.62;213658;1273;141285;-72
2022/03/15 08:39:27;;;;;;;17.70;11.90;;;;;;;8.12;64.73;101194.07;215033;1273;142127;-75
2022/03/15 08:44:32;;;;;;;15.00;11.00;;;;;;;8.25;64.85;101187.35;214599;1274;140328;-76
2022/03/15 08:49:38;;;;;;;19.60;11.70;;;;;;;8.55;65.06;101182.19;216237;1273;140529;-73
2022/03/15 08:54:43;;;;;;;17.50;11.30;;;;;;;8.97;64.79;101181.50;215291;1273;140799;-79
2022/03/15 08:59:48;;;;;;;19.90;11.90;;;;;;;9.35;64.47;101180.04;214762;1274;139874;-76
2022/03/15 09:04:53;;;;;;;15.10;11.10;;;;;;;9.55;64.54;101180.27;215659;1274;141566;-79
2022/03/15 09:09:58;;;;;;;16.90;11.10;;;;;;;9.81;64.32;101167.60;213514;1273;141643;-76
2022/03/15 09:15:02;;;;;;;13.00;9.90;;;;;;;10.01;64.10;101159.80;213899;1273;140610;-70
2022/03/15 09:20:08;;;;;;;14.60;10.40;;;;;;;10.27;63.88;101158.23;213632;1273;209099;-74
2022/03/15 09:25:13;;;;;;;15.40;9.90;;;;;;;10.41;63.50;101148.86;213539;1273;141536;-74
2022/03/15 09:30:19;;;;;;;12.50;9.00;;;;;;;10.64;63.26;101147.51;213898;1273;141711;-70
2022/03/15 09:35:24;;;;;;;12.10;9.00;;;;;;;10.91;63.26;101144.77;213161;1273;140601;-68
2022/03/15 09:40:28;;;;;;;12.70;9.10;;;;;;;11.47;63.23;101137.83;215576;1273;141113;-77
2022/03/15 09:45:34;;;;;;;15.70;10.90;;;;;;;12.16;62.70;101134.35;213500;1273;141572;-72
2022/03/15 09:50:40;;;;;;;14.30;10.70;;;;;;;12.51;61.58;101131.33;215762;1273;142243;-80
2022/03/15 09:55:46;;;;;;;13.20;9.70;;;;;;;12.84;60.71;101136.38;213289;1273;140898;-78
2022/03/15 10:00:53;;;;;;;14.40;10.00;;;;;;;13.27;60.01;101133.67;213102;1274;141342;-76
2022/03/15 10:05:58;;;;;;;13.20;11.10;;;;;;;13.49;59.41;101135.67;213567;1274;140967;-75
2022/03/15 10:11:02;;;;;;;12.80;9.70;;;;;;;13.18;58.46;101128.83;213815;1273;141280;-72
2022/03/15 10:16:12;;;;;;;10.90;8.10;;;;;;;12.80;57.96;101130.67;214701;1272;140469;-81
2022/03/15 10:21:17;;;;;;;13.70;9.50;;;;;;;12.48;58.19;101126.66;213245;1273;140197;-77
2022/03/15 10:26:24;;;;;;;9.50;8.10;;;;;;;12.21;58.27;101124.60;214780;1272;139912;-79
2022/03/15 10:31:29;;;;;;;12.40;7.50;;;;;;;12.13;58.48;101122.37;214920;1273;140243;-80
2022/03/15 10:36:41;;;;;;;9.90;7.40;;;;;;;12.03;58.28;101125.35;214928;1273;140337;-78
2022/03/15 10:41:52;;;;;;;10.50;7.90;;;;;;;11.93;58.19;101125.21;214620;1273;140357;-78
2022/03/15 10:47:04;;;;;;;13.10;8.40;;;;;;;11.78;58.29;101122.45;214098;1273;140810;-77
2022/03/15 10:52:08;;;;;;;24.10;12.50;;;;;;;11.60;58.53;101121.80;215952;1273;141696;-79
2022/03/15 10:57:13;;;;;;;14.80;10.80;;;;;;;11.49;58.55;101117.42;216305;1272;140428;-72
2022/03/15 11:02:17;;;;;;;13.80;9.20;;;;;;;11.54;59.06;101113.73;214299;1273;141150;-79
2022/03/15 11:07:36;;;;;;;12.00;9.10;;;;;;;11.63;59.08;101098.96;215519;1274;142747;-78
2022/03/15 11:13:07;;;;;;;11.70;9.10;;;;;;;12.17;59.17;101085.11;215776;1274;141762;-80
2022/03/15 11:18:15;;;;;;;13.50;9.50;;;;;;;12.84;59.02;101086.06;214375;1274;141282;-72
2022/03/15 11:23:23;;;;;;;12.00;8.50;;;;;;;13.21;57.83;101078.84;214819;1274;140292;-79
2022/03/15 11:28:31;;;;;;;11.40;8.40;;;;;;;13.58;57.90;101063.79;214583;1275;140255;-80
2022/03/15 11:33:37;;;;;;;9.10;6.70;;;;;;;13.75;57.11;101060.86;214346;1274;140029;-78
2022/03/15 11:38:42;;;;;;;5.60;5.10;;;;;;;13.68;56.09;101057.10;214560;1274;141086;-80
2022/03/15 11:44:13;;;;;;;8.10;5.20;;;;;;;13.72;55.83;101051.60;214292;1274;141149;-80
2022/03/15 11:49:24;;;;;;;4.30;3.20;;;;;;;13.90;55.22;101040.96;213689;1274;140871;-78
2022/03/15 11:54:51;;;;;;;5.20;4.20;;;;;;;13.87;54.78;101027.84;214121;1274;222024;-79
2022/03/15 11:59:57;;;;;;;11.60;3.90;;;;;;;13.92;54.39;101028.20;213554;1274;141442;-80
2022/03/15 12:05:20;;;;;;;7.20;3.70;;;;;;;13.73;53.76;101021.41;213292;1274;140117;-72
2022/03/15 12:10:29;;;;;;;5.00;4.20;;;;;;;13.60;53.61;101014.38;213465;1274;140013;-69
2022/03/15 12:16:13;;;;;;;7.70;4.70;;;;;;;13.66;53.49;101001.70;213926;1274;142525;-79
2022/03/15 12:21:25;;;;;;;8.20;6.00;;;;;;;13.68;53.05;100993.98;213653;1274;139806;-79
2022/03/15 12:26:30;;;;;;;9.40;6.30;;;;;;;13.60;52.92;100997.44;214083;1274;139998;-78
2022/03/15 12:31:43;;;;;;;10.80;7.20;;;;;;;13.48;52.94;100996.88;214576;1274;140099;-81
2022/03/15 12:36:58;;;;;;;11.30;7.90;;;;;;;13.55;52.95;100990.73;213753;1274;139900;-78
2022/03/15 12:42:13;;;;;;;12.40;6.70;;;;;;;13.91;52.96;100977.94;214325;1274;140056;-80
2022/03/15 12:47:26;;;;;;;8.70;6.90;;;;;;;14.23;52.48;100976.25;214848;1274;142290;-81
2022/03/15 12:52:49;;;;;;;8.90;6.90;;;;;;;14.24;51.74;100972.08;215269;1274;140709;-79
2022/03/15 12:58:05;;;;;;;7.30;6.50;;;;;;;14.27;51.28;100966.68;216249;1274;140544;-82
2022/03/15 13:03:17;;;;;;;7.10;5.50;;;;;;;14.18;50.85;100959.11;216155;1274;140535;-79
2022/03/15 13:08:23;;;;;;;8.10;6.80;;;;;;;14.22;50.67;100950.28;215723;1274;140607;-80
2022/03/15 13:13:27;;;;;;;12.00;8.00;;;;;;;14.23;50.41;100943.91;215965;1274;140120;-79
2022/03/15 13:18:34;;;;;;;11.50;7.90;;;;;;;14.30;50.28;100943.27;214828;1274;140538;-81
2022/03/15 13:23:41;;;;;;;7.00;6.40;;;;;;;14.49;50.34;100938.48;215049;1274;141147;-80
2022/03/15 13:28:50;;;;;;;10.30;7.80;;;;;;;14.74;50.00;100933.00;214824;1274;140626;-79
2022/03/15 13:34:00;;;;;;;14.10;7.10;;;;;;;14.92;49.85;100927.45;214539;1274;141331;-80
2022/03/15 13:39:10;;;;;;;7.80;7.10;;;;;;;14.91;49.27;100924.48;214396;1274;140594;-81
2022/03/15 13:44:19;;;;;;;7.20;6.60;;;;;;;14.85;49.05;100917.52;213779;1274;140565;-79
2022/03/15 13:49:28;;;;;;;6.10;5.10;;;;;;;14.83;48.72;100912.27;213976;1274;140073;-80
2022/03/15 13:55:00;;;;;;;6.10;5.50;;;;;;;14.89;48.64;100905.74;213215;1274;139922;-71
2022/03/15 14:00:17;;;;;;;6.60;5.50;;;;;;;14.93;48.24;100904.27;214259;1274;139943;-72
2022/03/15 14:05:27;;;;;;;6.40;5.80;;;;;;;14.85;47.94;100898.41;213982;1274;140364;-79
2022/03/15 14:10:32;;;;;;;6.60;6.00;;;;;;;14.74;47.83;100895.21;213717;1274;141545;-79
2022/03/15 14:15:36;;;;;;;7.00;6.40;;;;;;;14.48;47.75;100890.98;213856;1274;141796;-77
2022/03/15 14:20:42;;;;;;;8.20;6.50;;;;;;;14.13;48.03;100892.77;213411;1274;141876;-80
2022/03/15 14:25:50;;;;;;;9.00;6.70;;;;;;;13.88;48.15;100882.30;214423;1274;140922;-80
2022/03/15 14:31:03;;;;;;;6.70;4.80;;;;;;;13.68;48.48;100879.30;212616;1274;1277216;-79
2022/03/15 14:36:07;;;;;;;6.70;5.80;;;;;;;13.67;48.56;100867.60;213400;1274;141312;-78
2022/03/15 14:41:13;;;;;;;10.20;6.30;;;;;;;13.52;48.79;100865.66;213414;1274;141988;-80
2022/03/15 14:46:19;;;;;;;11.10;6.10;;;;;;;13.42;49.12;100860.81;214024;1274;141287;-80
2022/03/15 14:51:24;;;;;;;6.40;5.70;;;;;;;13.32;49.19;100856.73;213268;1274;142247;-79
2022/03/15 14:56:29;;;;;;;5.40;4.40;;;;;;;13.27;49.34;100851.06;214507;1274;140652;-79
2022/03/15 15:01:37;;;;;;;7.20;4.30;;;;;;;13.26;49.45;100845.30;214400;1274;140928;-80
2022/03/15 15:06:44;;;;;;;6.00;5.40;;;;;;;13.24;49.38;100843.47;216056;1274;141486;-80
2022/03/15 15:11:48;;;;;;;7.10;4.80;;;;;;;13.13;49.17;100835.16;216070;1274;141544;-80
2022/03/15 15:16:55;;;;;;;6.70;6.10;;;;;;;12.94;49.57;100829.67;215531;1274;141297;-78
2022/03/15 15:22:02;;;;;;;6.00;4.60;;;;;;;12.80;49.70;100822.18;216231;1274;142434;-78
2022/03/15 15:27:07;;;;;;;7.50;5.40;;;;;;;12.74;50.17;100813.90;214299;1274;143144;-79
2022/03/15 15:32:14;;;;;;;5.00;4.50;;;;;;;12.66;50.28;100807.55;214835;1274;140183;-79
2022/03/15 15:37:21;;;;;;;7.00;5.70;;;;;;;12.57;50.28;100799.09;212984;1274;140703;-79
2022/03/15 15:42:29;;;;;;;9.00;5.80;;;;;;;12.40;50.73;100801.81;213260;1274;142815;-79
2022/03/15 15:47:39;;;;;;;9.70;6.10;;;;;;;12.23;50.98;100800.13;213418;1274;142074;-79
2022/03/15 15:52:47;;;;;;;7.00;5.70;;;;;;;12.05;51.54;100796.95;214375;1274;141320;-79
2022/03/15 15:57:56;;;;;;;8.00;5.40;;;;;;;11.94;51.46;100792.97;212968;1276;139749;-79
2022/03/15 16:03:04;;;;;;;7.30;5.40;;;;;;;11.83;51.59;100788.55;213494;1274;140799;-79
2022/03/15 16:08:10;;;;;;;;;;;;;;;11.71;51.55;100793.36;213783;1274;140015;-75
2022/03/15 16:13:14;;;;;;;5.80;5.20;;;;;;;11.52;51.92;100792.92;214437;1275;126883;-79
2022/03/15 16:18:19;;;;;;;9.00;5.60;;;;;;;11.37;52.47;100793.73;213318;1274;140880;-78
2022/03/15 16:23:24;;;;;;;10.20;6.00;;;;;;;11.20;52.81;100795.93;214052;1274;161006;-79
2022/03/15 16:28:29;;;;;;;10.10;7.30;;;;;;;11.00;53.41;100799.91;213920;1274;140144;-80
2022/03/15 16:33:34;;;;;;;7.70;6.30;;;;;;;10.82;53.68;100803.26;214262;1274;140623;-79
2022/03/15 16:38:38;;;;;;;13.90;6.90;;;;;;;10.62;53.96;100795.12;214469;1274;139531;-79
2022/03/15 16:43:42;;;;;;;11.70;6.90;;;;;;;10.42;54.25;100792.12;214055;1274;140446;-77
2022/03/15 16:48:47;;;;;;;13.10;7.40;;;;;;;10.18;54.67;100784.35;214004;1274;140343;-78
2022/03/15 16:53:51;;;;;;;21.90;11.20;;;;;;;9.91;55.15;100776.15;213188;1274;140688;-79
2022/03/15 16:59:11;;;;;;;21.00;10.50;;;;;;;9.70;55.57;100778.07;215741;1274;140444;-79
2022/03/15 17:09:44;;;;;;;16.50;12.80;;;;;;;9.31;56.41;100776.84;215403;1274;140127;-79
2022/03/15 17:14:51;;;;;;;28.30;15.80;;;;;;;9.14;56.60;100768.21;215673;1274;140851;-76
2022/03/15 17:19:55;;;;;;;33.00;20.70;;;;;;;8.98;56.82;100760.95;215740;1274;140283;-76
2022/03/15 17:25:03;;;;;;;27.80;16.20;;;;;;;8.82;57.11;100757.90;215755;1274;140683;-77
2022/03/15 17:30:12;;;;;;;25.70;17.00;;;;;;;8.67;57.61;100754.92;213867;1274;141406;-75
2022/03/15 17:35:18;;;;;;;28.70;17.80;;;;;;;8.54;58.32;100744.89;214007;1274;139894;-76
2022/03/15 17:40:25;;;;;;;38.00;19.60;;;;;;;8.37;58.56;100737.39;215231;1274;163648;-77
2022/03/15 17:45:32;;;;;;;30.60;23.60;;;;;;;8.24;58.84;100727.08;214645;1274;141453;-76
2022/03/15 17:50:40;;;;;;;42.70;27.30;;;;;;;8.20;59.82;100720.52;213387;1274;142008;-75
2022/03/15 17:55:44;;;;;;;40.80;24.50;;;;;;;8.22;60.03;100719.40;214214;1274;140857;-72
2022/03/15 18:00:54;;;;;;;40.80;24.10;;;;;;;8.25;60.03;100719.13;214612;1274;140843;-75
2022/03/15 18:06:00;;;;;;;50.00;27.50;;;;;;;8.27;60.59;100709.36;213655;1274;140542;-76
2022/03/15 18:11:05;;;;;;;40.20;24.70;;;;;;;8.21;60.56;100709.05;213452;1274;140018;-78
2022/03/15 18:16:14;;;;;;;44.40;26.10;;;;;;;8.08;60.73;100709.45;214226;1274;141561;-76
2022/03/15 18:21:19;;;;;;;38.50;25.40;;;;;;;7.91;60.85;100714.45;214397;1274;140750;-75
2022/03/15 18:26:24;;;;;;;46.10;26.90;;;;;;;7.72;60.47;100703.62;214663;1274;140848;-77
2022/03/15 18:31:29;;;;;;;54.90;31.50;;;;;;;7.54;60.97;100686.56;213807;1274;141845;-70
2022/03/15 18:36:36;;;;;;;45.70;27.50;;;;;;;7.45;61.78;100667.17;214556;1273;141075;-77
2022/03/15 18:41:42;;;;;;;58.10;31.00;;;;;;;7.40;61.58;100674.15;214726;1274;142455;-78
2022/03/15 18:46:47;;;;;;;54.90;31.10;;;;;;;7.30;61.70;100680.19;214881;1274;141042;-77
2022/03/15 18:51:51;;;;;;;46.10;30.10;;;;;;;7.23;62.15;100698.15;213143;1274;142028;-77
2022/03/15 18:56:58;;;;;;;58.40;32.40;;;;;;;7.14;62.06;100706.58;214680;1274;140804;-72
2022/03/15 19:02:04;;;;;;;49.10;31.20;;;;;;;6.99;62.13;100700.77;215412;1274;140590;-76
2022/03/15 19:07:09;;;;;;;47.60;30.40;;;;;;;6.92;62.86;100684.41;215033;1274;140080;-77
2022/03/15 19:12:14;;;;;;;46.30;29.40;;;;;;;6.83;62.80;100666.25;215778;1274;140929;-69
2022/03/15 19:17:18;;;;;;;49.60;27.20;;;;;;;6.79;62.94;100674.56;215574;1274;141754;-79
2022/03/15 19:22:23;;;;;;;44.90;29.10;;;;;;;6.76;62.90;100677.21;216193;1274;141173;-76
2022/03/15 19:27:27;;;;;;;51.00;31.60;;;;;;;6.75;63.42;100670.73;216147;1274;141580;-75
2022/03/15 19:32:35;;;;;;;47.10;28.70;;;;;;;6.78;63.91;100666.19;216395;1274;140585;-79
2022/03/15 19:37:39;;;;;;;49.10;29.40;;;;;;;6.78;64.35;100664.73;216199;1274;141039;-79
2022/03/15 19:42:45;;;;;;;43.40;26.40;;;;;;;6.81;64.68;100661.66;215791;1274;141460;-77
2022/03/15 19:47:50;;;;;;;53.20;30.50;;;;;;;6.90;64.55;100647.74;213307;1274;153446;-74
2022/03/15 19:52:55;;;;;;;45.50;29.00;;;;;;;6.96;65.29;100642.55;215124;1274;140280;-78
2022/03/15 19:58:02;;;;;;;44.20;27.40;;;;;;;6.98;64.82;100647.27;213717;1274;142252;-79
2022/03/15 20:03:07;;;;;;;53.10;33.00;;;;;;;6.92;64.93;100638.63;214222;1274;141827;-71
2022/03/15 20:08:19;;;;;;;63.40;32.00;;;;;;;6.87;65.25;100628.84;214248;1274;140187;-72
2022/03/15 20:13:25;;;;;;;59.80;31.40;;;;;;;6.84;65.21;100613.42;213531;1274;139795;-73
2022/03/15 20:18:31;;;;;;;65.30;34.20;;;;;;;6.82;65.63;100609.85;214034;1274;140488;-66
2022/03/15 20:23:36;;;;;;;69.00;34.60;;;;;;;6.84;65.67;100605.95;214582;1274;142692;-77
2022/03/15 20:28:43;;;;;;;59.40;33.00;;;;;;;6.82;65.76;100605.61;214205;1274;141072;-74
2022/03/15 20:33:49;;;;;;;62.50;33.50;;;;;;;6.81;65.79;100603.23;214061;1274;141174;-74
2022/03/15 20:38:54;;;;;;;57.00;32.60;;;;;;;6.79;66.25;100600.12;213595;1274;140922;-74
2022/03/15 20:44:18;;;;;;;58.80;33.10;;;;;;;6.70;65.91;100601.62;213154;1273;141156;-70
2022/03/15 20:49:26;;;;;;;54.60;31.90;;;;;;;6.61;66.03;100599.78;214175;1274;141187;-72
2022/03/15 20:54:33;;;;;;;60.70;32.60;;;;;;;6.59;66.16;100590.27;213513;1274;141725;-73
2022/03/15 20:59:37;;;;;;;65.90;35.10;;;;;;;6.58;66.26;100579.37;213336;1274;141619;-74
2022/03/15 21:04:42;;;;;;;60.50;31.70;;;;;;;6.54;66.13;100584.54;214044;1274;140815;-75
2022/03/15 21:09:46;;;;;;;55.10;33.50;;;;;;;6.47;66.56;100582.71;214626;1274;141096;-72
2022/03/15 21:14:49;;;;;;;55.00;33.20;;;;;;;6.41;66.39;100578.33;214673;1272;141022;-72
2022/03/15 21:19:54;;;;;;;59.80;32.70;;;;;;;6.35;66.63;100568.83;214975;1274;139866;-73
2022/03/15 21:24:59;;;;;;;56.30;34.90;;;;;;;6.33;66.67;100561.27;214854;1273;140643;-69
2022/03/15 21:30:03;;;;;;;46.80;32.60;;;;;;;6.33;66.60;100555.71;215196;1273;143408;-73
2022/03/15 21:35:09;;;;;;;53.40;32.20;;;;;;;6.30;66.69;100550.48;216016;1273;140673;-70
2022/03/15 21:40:13;;;;;;;46.80;27.70;;;;;;;6.28;66.65;100546.09;215999;1271;140097;-73
2022/03/15 21:45:23;;;;;;;50.90;33.10;;;;;;;6.24;66.97;100545.23;215726;1273;140053;-69
2022/03/15 21:50:26;;;;;;;45.10;28.40;;;;;;;6.22;66.84;100546.91;215877;1272;140596;-72
2022/03/15 21:55:30;;;;;;;43.70;27.70;;;;;;;6.25;66.99;100547.08;214998;1273;142343;-69
2022/03/15 22:00:34;;;;;;;48.90;30.10;;;;;;;6.28;66.95;100548.70;214336;1273;141058;-72
2022/03/15 22:05:42;;;;;;;48.60;29.60;;;;;;;6.23;66.82;100546.71;213737;1274;142133;-81
2022/03/15 22:10:47;;;;;;;52.60;31.90;;;;;;;6.13;66.93;100545.22;214187;1273;140254;-81
2022/03/15 22:15:52;;;;;;;57.90;32.20;;;;;;;6.06;67.26;100525.65;214101;1273;141769;-78
2022/03/15 22:20:58;;;;;;;50.00;29.40;;;;;;;6.04;67.64;100508.73;215319;1273;141165;-81
2022/03/15 22:26:03;;;;;;;44.10;29.00;;;;;;;6.07;67.61;100508.85;213410;1273;142089;-74
2022/03/15 23:19:00;;;;;;;32.00;24.50;;;;;;;6.45;67.97;100460.61;213788;1273;140247;-69
2022/03/15 23:24:05;;;;;;;46.60;26.70;;;;;;;6.50;67.75;100456.13;215000;1273;141797;-72
2022/03/15 23:29:10;;;;;;;36.90;25.60;;;;;;;6.53;67.93;100446.02;215144;1274;142767;-71
2022/03/15 23:34:15;;;;;;;40.80;26.40;;;;;;;6.55;67.56;100438.94;216182;1273;140162;-75
2022/03/15 23:39:19;;;;;;;40.60;26.30;;;;;;;6.57;67.28;100446.63;216260;1273;141052;-71
2022/03/15 23:44:23;;;;;;;43.30;28.50;;;;;;;6.58;67.45;100447.73;216058;1273;141258;-72
2022/03/15 23:49:29;;;;;;;61.30;38.50;;;;;;;6.66;67.02;100443.29;213576;1273;140953;-65